sensor_id;sensor_type;location;lat;lon;timestamp;P1;durP1;ratioP1;P2;durP2;ratioP2
22270;SDS011;11304;53.520;10.104;2024-03-25T00:01:34;14.93;;;2.53;;
22270;SDS011;11304;53.520;10.104;2024-03-25T00:04:00;12.93;;;2.53;;
22270;SDS011;11304;53.520;10.104;2024-03-25T00:06:26;10.55;;;2.22;;
22270;SDS011;11304;53.520;10.104;2024-03-25T00:08:52;7.90;;;2.10;;
22270;SDS011;11304;53.520;10.104;2024-03-25T00:11:18;10.75;;;2.92;;
22270;SDS011;11304;53.520;10.104;2024-03-25T00:13:44;9.07;;;2.28;;
22270;SDS011;11304;53.520;10.104;2024-03-25T00:16:10;5.60;;;1.88;;
22270;SDS011;11304;53.520;10.104;2024-03-25T00:18:36;9.00;;;2.15;;
22270;SDS011;11304;53.520;10.104;2024-03-25T00:21:02;8.02;;;2.35;;
22270;SDS011;11304;53.520;10.104;2024-03-25T00:23:29;10.98;;;2.35;;
22270;SDS011;11304;53.520;10.104;2024-03-25T00:25:55;7.47;;;2.17;;
22270;SDS011;11304;53.520;10.104;2024-03-25T00:28:21;7.82;;;2.13;;
22270;SDS011;11304;53.520;10.104;2024-03-25T00:30:47;7.95;;;1.77;;
22270;SDS011;11304;53.520;10.104;2024-03-25T00:33:14;11.13;;;2.20;;
22270;SDS011;11304;53.520;10.104;2024-03-25T00:35:41;7.38;;;2.40;;
22270;SDS011;11304;53.520;10.104;2024-03-25T00:38:07;6.35;;;2.50;;
22270;SDS011;11304;53.520;10.104;2024-03-25T00:40:34;11.02;;;2.35;;
22270;SDS011;11304;53.520;10.104;2024-03-25T00:43:00;8.23;;;2.25;;
22270;SDS011;11304;53.520;10.104;2024-03-25T00:45:26;9.15;;;2.20;;
22270;SDS011;11304;53.520;10.104;2024-03-25T00:47:58;8.18;;;2.20;;
22270;SDS011;11304;53.520;10.104;2024-03-25T00:50:25;9.15;;;2.20;;
22270;SDS011;11304;53.520;10.104;2024-03-25T00:52:51;7.43;;;2.30;;
22270;SDS011;11304;53.520;10.104;2024-03-25T00:55:17;10.25;;;2.88;;
22270;SDS011;11304;53.520;10.104;2024-03-25T00:57:43;8.70;;;2.20;;
22270;SDS011;11304;53.520;10.104;2024-03-25T01:00:09;9.63;;;1.95;;
22270;SDS011;11304;53.520;10.104;2024-03-25T01:02:35;12.27;;;2.45;;
22270;SDS011;11304;53.520;10.104;2024-03-25T01:05:02;6.93;;;2.00;;
22270;SDS011;11304;53.520;10.104;2024-03-25T01:07:30;4.95;;;2.15;;
22270;SDS011;11304;53.520;10.104;2024-03-25T01:09:56;8.23;;;2.20;;
22270;SDS011;11304;53.520;10.104;2024-03-25T01:12:23;9.57;;;2.58;;
22270;SDS011;11304;53.520;10.104;2024-03-25T01:14:49;10.10;;;2.30;;
22270;SDS011;11304;53.520;10.104;2024-03-25T01:17:15;4.90;;;2.30;;
22270;SDS011;11304;53.520;10.104;2024-03-25T01:19:41;8.93;;;2.50;;
22270;SDS011;11304;53.520;10.104;2024-03-25T01:22:07;12.95;;;2.65;;
22270;SDS011;11304;53.520;10.104;2024-03-25T01:24:34;8.07;;;2.20;;
22270;SDS011;11304;53.520;10.104;2024-03-25T01:27:00;13.15;;;2.58;;
22270;SDS011;11304;53.520;10.104;2024-03-25T01:29:26;10.32;;;2.05;;
22270;SDS011;11304;53.520;10.104;2024-03-25T01:31:52;6.97;;;2.42;;
22270;SDS011;11304;53.520;10.104;2024-03-25T01:34:18;9.00;;;2.58;;
22270;SDS011;11304;53.520;10.104;2024-03-25T01:36:44;12.23;;;2.80;;
22270;SDS011;11304;53.520;10.104;2024-03-25T01:39:10;7.95;;;2.35;;
22270;SDS011;11304;53.520;10.104;2024-03-25T01:41:36;8.10;;;2.80;;
22270;SDS011;11304;53.520;10.104;2024-03-25T01:44:02;12.88;;;3.25;;
22270;SDS011;11304;53.520;10.104;2024-03-25T01:46:29;9.70;;;2.83;;
22270;SDS011;11304;53.520;10.104;2024-03-25T01:48:55;7.70;;;3.13;;
22270;SDS011;11304;53.520;10.104;2024-03-25T01:51:23;10.27;;;3.33;;
22270;SDS011;11304;53.520;10.104;2024-03-25T01:53:50;11.48;;;2.85;;
22270;SDS011;11304;53.520;10.104;2024-03-25T01:56:17;11.48;;;3.28;;
22270;SDS011;11304;53.520;10.104;2024-03-25T01:58:44;14.52;;;4.53;;
22270;SDS011;11304;53.520;10.104;2024-03-25T02:01:10;14.05;;;3.67;;
22270;SDS011;11304;53.520;10.104;2024-03-25T02:03:39;10.00;;;3.35;;
22270;SDS011;11304;53.520;10.104;2024-03-25T02:06:06;14.43;;;3.42;;
22270;SDS011;11304;53.520;10.104;2024-03-25T02:08:33;9.38;;;3.30;;
22270;SDS011;11304;53.520;10.104;2024-03-25T02:11:00;10.65;;;3.65;;
22270;SDS011;11304;53.520;10.104;2024-03-25T02:13:26;12.20;;;3.78;;
22270;SDS011;11304;53.520;10.104;2024-03-25T02:15:52;11.00;;;4.20;;
22270;SDS011;11304;53.520;10.104;2024-03-25T02:18:19;12.70;;;4.32;;
22270;SDS011;11304;53.520;10.104;2024-03-25T02:20:46;12.70;;;4.35;;
22270;SDS011;11304;53.520;10.104;2024-03-25T02:23:12;13.82;;;4.40;;
22270;SDS011;11304;53.520;10.104;2024-03-25T02:25:39;13.68;;;4.50;;
22270;SDS011;11304;53.520;10.104;2024-03-25T02:28:06;15.05;;;4.47;;
22270;SDS011;11304;53.520;10.104;2024-03-25T02:30:32;12.07;;;4.30;;
22270;SDS011;11304;53.520;10.104;2024-03-25T02:32:58;10.68;;;4.55;;
22270;SDS011;11304;53.520;10.104;2024-03-25T02:35:25;7.53;;;3.53;;
22270;SDS011;11304;53.520;10.104;2024-03-25T02:37:52;5.40;;;2.30;;
22270;SDS011;11304;53.520;10.104;2024-03-25T02:40:18;8.13;;;2.38;;
22270;SDS011;11304;53.520;10.104;2024-03-25T02:42:45;7.57;;;2.45;;
22270;SDS011;11304;53.520;10.104;2024-03-25T02:45:12;5.88;;;2.13;;
22270;SDS011;11304;53.520;10.104;2024-03-25T02:47:38;10.77;;;2.83;;
22270;SDS011;11304;53.520;10.104;2024-03-25T02:50:04;6.75;;;2.45;;
22270;SDS011;11304;53.520;10.104;2024-03-25T02:52:30;7.57;;;2.40;;
22270;SDS011;11304;53.520;10.104;2024-03-25T02:54:56;8.38;;;2.33;;
22270;SDS011;11304;53.520;10.104;2024-03-25T02:57:22;8.57;;;2.42;;
22270;SDS011;11304;53.520;10.104;2024-03-25T02:59:48;4.60;;;2.35;;
22270;SDS011;11304;53.520;10.104;2024-03-25T03:02:14;9.38;;;2.83;;
22270;SDS011;11304;53.520;10.104;2024-03-25T03:04:40;10.23;;;2.40;;
22270;SDS011;11304;53.520;10.104;2024-03-25T03:07:06;7.15;;;2.95;;
22270;SDS011;11304;53.520;10.104;2024-03-25T03:09:32;7.93;;;2.63;;
22270;SDS011;11304;53.520;10.104;2024-03-25T03:11:58;8.95;;;3.10;;
22270;SDS011;11304;53.520;10.104;2024-03-25T03:14:24;14.55;;;3.30;;
22270;SDS011;11304;53.520;10.104;2024-03-25T03:16:51;9.68;;;2.70;;
22270;SDS011;11304;53.520;10.104;2024-03-25T03:19:23;14.32;;;3.15;;
22270;SDS011;11304;53.520;10.104;2024-03-25T03:21:49;13.20;;;3.35;;
22270;SDS011;11304;53.520;10.104;2024-03-25T03:24:15;10.35;;;2.60;;
22270;SDS011;11304;53.520;10.104;2024-03-25T03:26:41;9.85;;;2.60;;
22270;SDS011;11304;53.520;10.104;2024-03-25T03:29:07;9.30;;;2.60;;
22270;SDS011;11304;53.520;10.104;2024-03-25T03:31:33;12.20;;;2.65;;
22270;SDS011;11304;53.520;10.104;2024-03-25T03:33:59;9.13;;;3.30;;
22270;SDS011;11304;53.520;10.104;2024-03-25T03:36:26;10.48;;;2.20;;
22270;SDS011;11304;53.520;10.104;2024-03-25T03:38:52;7.00;;;1.95;;
22270;SDS011;11304;53.520;10.104;2024-03-25T03:41:18;7.45;;;2.00;;
22270;SDS011;11304;53.520;10.104;2024-03-25T03:43:44;11.57;;;2.40;;
22270;SDS011;11304;53.520;10.104;2024-03-25T03:46:10;7.15;;;2.15;;
22270;SDS011;11304;53.520;10.104;2024-03-25T03:48:37;10.00;;;2.22;;
22270;SDS011;11304;53.520;10.104;2024-03-25T03:51:04;9.20;;;2.65;;
22270;SDS011;11304;53.520;10.104;2024-03-25T03:53:30;5.97;;;2.10;;
22270;SDS011;11304;53.520;10.104;2024-03-25T03:55:56;14.70;;;3.25;;
22270;SDS011;11304;53.520;10.104;2024-03-25T03:58:22;7.70;;;2.45;;
22270;SDS011;11304;53.520;10.104;2024-03-25T04:00:49;11.20;;;2.50;;
22270;SDS011;11304;53.520;10.104;2024-03-25T04:03:15;8.10;;;2.30;;
22270;SDS011;11304;53.520;10.104;2024-03-25T04:05:41;9.93;;;2.95;;
22270;SDS011;11304;53.520;10.104;2024-03-25T04:08:07;13.95;;;2.60;;
22270;SDS011;11304;53.520;10.104;2024-03-25T04:10:33;9.05;;;2.28;;
22270;SDS011;11304;53.520;10.104;2024-03-25T04:12:59;6.22;;;2.35;;
22270;SDS011;11304;53.520;10.104;2024-03-25T04:15:25;7.45;;;1.98;;
22270;SDS011;11304;53.520;10.104;2024-03-25T04:17:52;5.55;;;1.90;;
22270;SDS011;11304;53.520;10.104;2024-03-25T04:20:18;6.43;;;1.75;;
22270;SDS011;11304;53.520;10.104;2024-03-25T04:22:44;5.38;;;1.85;;
22270;SDS011;11304;53.520;10.104;2024-03-25T04:25:11;8.32;;;1.90;;
22270;SDS011;11304;53.520;10.104;2024-03-25T04:27:39;2.60;;;1.42;;
22270;SDS011;11304;53.520;10.104;2024-03-25T04:30:08;7.22;;;1.80;;
22270;SDS011;11304;53.520;10.104;2024-03-25T04:32:35;4.47;;;1.70;;
22270;SDS011;11304;53.520;10.104;2024-03-25T04:35:01;5.82;;;1.88;;
22270;SDS011;11304;53.520;10.104;2024-03-25T04:37:28;4.20;;;1.60;;
22270;SDS011;11304;53.520;10.104;2024-03-25T04:39:55;6.40;;;1.90;;
22270;SDS011;11304;53.520;10.104;2024-03-25T04:42:21;6.60;;;2.00;;
22270;SDS011;11304;53.520;10.104;2024-03-25T04:44:47;8.07;;;2.00;;
22270;SDS011;11304;53.520;10.104;2024-03-25T04:47:13;8.55;;;2.30;;
22270;SDS011;11304;53.520;10.104;2024-03-25T04:49:42;6.25;;;1.80;;
22270;SDS011;11304;53.520;10.104;2024-03-25T04:52:08;6.43;;;1.60;;
22270;SDS011;11304;53.520;10.104;2024-03-25T04:54:34;3.80;;;1.40;;
22270;SDS011;11304;53.520;10.104;2024-03-25T04:57:00;5.63;;;2.33;;
22270;SDS011;11304;53.520;10.104;2024-03-25T04:59:26;6.20;;;1.60;;
22270;SDS011;11304;53.520;10.104;2024-03-25T05:01:52;4.57;;;1.67;;
22270;SDS011;11304;53.520;10.104;2024-03-25T05:04:18;4.35;;;1.70;;
22270;SDS011;11304;53.520;10.104;2024-03-25T05:06:45;5.25;;;1.52;;
22270;SDS011;11304;53.520;10.104;2024-03-25T05:09:11;5.45;;;1.58;;
22270;SDS011;11304;53.520;10.104;2024-03-25T05:11:37;7.28;;;3.38;;
22270;SDS011;11304;53.520;10.104;2024-03-25T05:14:03;8.23;;;2.20;;
22270;SDS011;11304;53.520;10.104;2024-03-25T05:16:29;6.05;;;2.03;;
22270;SDS011;11304;53.520;10.104;2024-03-25T05:18:55;7.13;;;2.08;;
22270;SDS011;11304;53.520;10.104;2024-03-25T05:21:21;5.55;;;1.88;;
22270;SDS011;11304;53.520;10.104;2024-03-25T05:23:47;9.38;;;2.50;;
22270;SDS011;11304;53.520;10.104;2024-03-25T05:26:13;6.63;;;2.85;;
22270;SDS011;11304;53.520;10.104;2024-03-25T05:28:39;9.57;;;2.33;;
22270;SDS011;11304;53.520;10.104;2024-03-25T05:31:06;5.35;;;2.17;;
22270;SDS011;11304;53.520;10.104;2024-03-25T05:33:33;5.95;;;2.33;;
22270;SDS011;11304;53.520;10.104;2024-03-25T05:35:59;6.50;;;2.30;;
22270;SDS011;11304;53.520;10.104;2024-03-25T05:38:25;9.18;;;2.28;;
22270;SDS011;11304;53.520;10.104;2024-03-25T05:40:51;7.22;;;2.28;;
22270;SDS011;11304;53.520;10.104;2024-03-25T05:43:18;7.75;;;2.22;;
22270;SDS011;11304;53.520;10.104;2024-03-25T05:45:51;12.73;;;2.90;;
22270;SDS011;11304;53.520;10.104;2024-03-25T05:48:18;4.60;;;1.77;;
22270;SDS011;11304;53.520;10.104;2024-03-25T05:50:44;4.18;;;2.00;;
22270;SDS011;11304;53.520;10.104;2024-03-25T05:53:10;7.07;;;2.30;;
22270;SDS011;11304;53.520;10.104;2024-03-25T05:55:36;6.95;;;2.22;;
22270;SDS011;11304;53.520;10.104;2024-03-25T05:58:02;4.25;;;2.08;;
22270;SDS011;11304;53.520;10.104;2024-03-25T06:00:29;5.85;;;2.05;;
22270;SDS011;11304;53.520;10.104;2024-03-25T06:02:55;4.43;;;1.67;;
22270;SDS011;11304;53.520;10.104;2024-03-25T06:05:21;7.90;;;1.83;;
22270;SDS011;11304;53.520;10.104;2024-03-25T06:07:48;6.78;;;1.90;;
22270;SDS011;11304;53.520;10.104;2024-03-25T06:10:14;4.07;;;1.90;;
22270;SDS011;11304;53.520;10.104;2024-03-25T06:12:40;9.65;;;2.80;;
22270;SDS011;11304;53.520;10.104;2024-03-25T06:15:06;5.78;;;2.40;;
22270;SDS011;11304;53.520;10.104;2024-03-25T06:17:32;9.98;;;2.15;;
22270;SDS011;11304;53.520;10.104;2024-03-25T06:19:58;6.07;;;2.00;;
22270;SDS011;11304;53.520;10.104;2024-03-25T06:22:24;3.75;;;1.73;;
22270;SDS011;11304;53.520;10.104;2024-03-25T06:24:51;5.45;;;1.95;;
22270;SDS011;11304;53.520;10.104;2024-03-25T06:27:18;4.70;;;1.80;;
22270;SDS011;11304;53.520;10.104;2024-03-25T06:29:44;8.25;;;1.98;;
22270;SDS011;11304;53.520;10.104;2024-03-25T06:32:11;8.02;;;1.90;;
22270;SDS011;11304;53.520;10.104;2024-03-25T06:34:56;6.13;;;2.05;;
22270;SDS011;11304;53.520;10.104;2024-03-25T06:37:25;10.98;;;2.58;;
22270;SDS011;11304;53.520;10.104;2024-03-25T06:39:51;8.02;;;2.80;;
22270;SDS011;11304;53.520;10.104;2024-03-25T06:42:18;8.45;;;2.72;;
22270;SDS011;11304;53.520;10.104;2024-03-25T06:44:44;9.75;;;2.35;;
22270;SDS011;11304;53.520;10.104;2024-03-25T06:47:14;7.30;;;2.35;;
22270;SDS011;11304;53.520;10.104;2024-03-25T06:49:40;9.85;;;2.35;;
22270;SDS011;11304;53.520;10.104;2024-03-25T06:52:07;9.77;;;2.67;;
22270;SDS011;11304;53.520;10.104;2024-03-25T06:54:34;8.40;;;2.60;;
22270;SDS011;11304;53.520;10.104;2024-03-25T06:57:00;8.30;;;3.03;;
22270;SDS011;11304;53.520;10.104;2024-03-25T06:59:27;10.77;;;3.13;;
22270;SDS011;11304;53.520;10.104;2024-03-25T07:01:53;8.52;;;2.50;;
22270;SDS011;11304;53.520;10.104;2024-03-25T07:04:19;8.20;;;2.35;;
22270;SDS011;11304;53.520;10.104;2024-03-25T07:06:45;5.25;;;2.45;;
22270;SDS011;11304;53.520;10.104;2024-03-25T07:09:11;7.20;;;2.38;;
22270;SDS011;11304;53.520;10.104;2024-03-25T07:11:37;6.50;;;2.70;;
22270;SDS011;11304;53.520;10.104;2024-03-25T07:14:07;6.93;;;3.00;;
22270;SDS011;11304;53.520;10.104;2024-03-25T07:16:34;11.18;;;2.88;;
22270;SDS011;11304;53.520;10.104;2024-03-25T07:19:00;12.25;;;3.28;;
22270;SDS011;11304;53.520;10.104;2024-03-25T07:21:26;6.07;;;3.85;;
22270;SDS011;11304;53.520;10.104;2024-03-25T07:23:52;8.48;;;3.13;;
22270;SDS011;11304;53.520;10.104;2024-03-25T07:26:18;7.60;;;2.20;;
22270;SDS011;11304;53.520;10.104;2024-03-25T07:28:44;5.47;;;1.92;;
22270;SDS011;11304;53.520;10.104;2024-03-25T07:31:10;6.40;;;2.25;;
22270;SDS011;11304;53.520;10.104;2024-03-25T07:33:36;8.27;;;2.17;;
22270;SDS011;11304;53.520;10.104;2024-03-25T07:36:02;10.77;;;2.42;;
22270;SDS011;11304;53.520;10.104;2024-03-25T07:38:28;6.22;;;2.00;;
22270;SDS011;11304;53.520;10.104;2024-03-25T07:40:54;8.43;;;2.17;;
22270;SDS011;11304;53.520;10.104;2024-03-25T07:43:20;10.13;;;2.45;;
22270;SDS011;11304;53.520;10.104;2024-03-25T07:45:46;8.27;;;1.80;;
22270;SDS011;11304;53.520;10.104;2024-03-25T07:48:12;8.05;;;2.30;;
22270;SDS011;11304;53.520;10.104;2024-03-25T07:50:38;6.80;;;2.08;;
22270;SDS011;11304;53.520;10.104;2024-03-25T07:53:05;11.15;;;2.60;;
22270;SDS011;11304;53.520;10.104;2024-03-25T07:55:31;7.57;;;2.22;;
22270;SDS011;11304;53.520;10.104;2024-03-25T07:57:57;11.70;;;2.20;;
22270;SDS011;11304;53.520;10.104;2024-03-25T08:00:23;6.32;;;2.13;;
22270;SDS011;11304;53.520;10.104;2024-03-25T08:02:49;6.38;;;2.13;;
22270;SDS011;11304;53.520;10.104;2024-03-25T08:05:15;6.63;;;2.28;;
22270;SDS011;11304;53.520;10.104;2024-03-25T08:07:41;7.60;;;1.77;;
22270;SDS011;11304;53.520;10.104;2024-03-25T08:10:08;6.97;;;2.15;;
22270;SDS011;11304;53.520;10.104;2024-03-25T08:12:34;7.82;;;2.03;;
22270;SDS011;11304;53.520;10.104;2024-03-25T08:15:00;5.53;;;2.70;;
22270;SDS011;11304;53.520;10.104;2024-03-25T08:17:26;5.50;;;2.40;;
22270;SDS011;11304;53.520;10.104;2024-03-25T08:19:52;14.20;;;3.17;;
22270;SDS011;11304;53.520;10.104;2024-03-25T08:22:18;12.48;;;3.55;;
22270;SDS011;11304;53.520;10.104;2024-03-25T08:24:45;8.13;;;3.33;;
22270;SDS011;11304;53.520;10.104;2024-03-25T08:27:11;9.02;;;3.65;;
22270;SDS011;11304;53.520;10.104;2024-03-25T08:29:37;12.68;;;4.18;;
22270;SDS011;11304;53.520;10.104;2024-03-25T08:32:03;8.68;;;4.00;;
22270;SDS011;11304;53.520;10.104;2024-03-25T08:34:29;14.50;;;4.90;;
22270;SDS011;11304;53.520;10.104;2024-03-25T08:36:55;11.93;;;4.32;;
22270;SDS011;11304;53.520;10.104;2024-03-25T08:39:21;10.98;;;3.88;;
22270;SDS011;11304;53.520;10.104;2024-03-25T08:41:47;13.90;;;3.50;;
22270;SDS011;11304;53.520;10.104;2024-03-25T08:44:13;16.35;;;3.30;;
22270;SDS011;11304;53.520;10.104;2024-03-25T08:46:39;10.90;;;2.95;;
22270;SDS011;11304;53.520;10.104;2024-03-25T08:49:05;9.32;;;2.80;;
22270;SDS011;11304;53.520;10.104;2024-03-25T08:51:31;14.57;;;3.40;;
22270;SDS011;11304;53.520;10.104;2024-03-25T08:53:57;11.80;;;3.75;;
22270;SDS011;11304;53.520;10.104;2024-03-25T08:56:23;19.77;;;3.88;;
22270;SDS011;11304;53.520;10.104;2024-03-25T08:58:49;16.88;;;3.70;;
22270;SDS011;11304;53.520;10.104;2024-03-25T09:01:18;11.77;;;3.83;;
22270;SDS011;11304;53.520;10.104;2024-03-25T09:03:44;8.88;;;2.63;;
22270;SDS011;11304;53.520;10.104;2024-03-25T09:06:10;14.57;;;2.80;;
22270;SDS011;11304;53.520;10.104;2024-03-25T09:08:36;9.38;;;3.08;;
22270;SDS011;11304;53.520;10.104;2024-03-25T09:11:22;8.25;;;2.75;;
22270;SDS011;11304;53.520;10.104;2024-03-25T09:13:50;11.50;;;2.20;;
22270;SDS011;11304;53.520;10.104;2024-03-25T09:16:16;8.65;;;2.33;;
22270;SDS011;11304;53.520;10.104;2024-03-25T09:18:42;10.20;;;2.92;;
22270;SDS011;11304;53.520;10.104;2024-03-25T09:21:08;11.68;;;2.15;;
22270;SDS011;11304;53.520;10.104;2024-03-25T09:23:34;8.30;;;2.15;;
22270;SDS011;11304;53.520;10.104;2024-03-25T09:26:00;14.80;;;2.28;;
22270;SDS011;11304;53.520;10.104;2024-03-25T09:28:26;10.80;;;2.58;;
22270;SDS011;11304;53.520;10.104;2024-03-25T09:30:52;9.98;;;2.13;;
22270;SDS011;11304;53.520;10.104;2024-03-25T09:33:18;13.60;;;2.45;;
22270;SDS011;11304;53.520;10.104;2024-03-25T09:35:44;15.30;;;2.58;;
22270;SDS011;11304;53.520;10.104;2024-03-25T09:38:10;11.70;;;2.78;;
22270;SDS011;11304;53.520;10.104;2024-03-25T09:40:39;11.25;;;2.78;;
22270;SDS011;11304;53.520;10.104;2024-03-25T09:43:06;14.05;;;2.88;;
22270;SDS011;11304;53.520;10.104;2024-03-25T09:45:37;13.05;;;2.50;;
22270;SDS011;11304;53.520;10.104;2024-03-25T09:48:05;13.65;;;2.42;;
22270;SDS011;11304;53.520;10.104;2024-03-25T09:50:32;11.77;;;2.63;;
22270;SDS011;11304;53.520;10.104;2024-03-25T09:52:58;7.85;;;2.35;;
22270;SDS011;11304;53.520;10.104;2024-03-25T09:55:24;13.57;;;2.78;;
22270;SDS011;11304;53.520;10.104;2024-03-25T09:57:50;11.07;;;2.67;;
22270;SDS011;11304;53.520;10.104;2024-03-25T10:00:17;13.00;;;2.72;;
22270;SDS011;11304;53.520;10.104;2024-03-25T10:02:43;10.73;;;2.35;;
22270;SDS011;11304;53.520;10.104;2024-03-25T10:05:10;13.48;;;2.65;;
22270;SDS011;11304;53.520;10.104;2024-03-25T10:07:36;11.10;;;2.45;;
22270;SDS011;11304;53.520;10.104;2024-03-25T10:10:05;11.55;;;2.25;;
22270;SDS011;11304;53.520;10.104;2024-03-25T10:12:31;12.55;;;2.33;;
22270;SDS011;11304;53.520;10.104;2024-03-25T10:14:57;9.70;;;2.35;;
22270;SDS011;11304;53.520;10.104;2024-03-25T10:17:24;8.88;;;2.20;;
22270;SDS011;11304;53.520;10.104;2024-03-25T10:19:50;8.98;;;2.30;;
22270;SDS011;11304;53.520;10.104;2024-03-25T10:22:16;7.38;;;2.20;;
22270;SDS011;11304;53.520;10.104;2024-03-25T10:24:42;11.20;;;2.38;;
22270;SDS011;11304;53.520;10.104;2024-03-25T10:29:45;9.27;;;2.53;;
22270;SDS011;11304;53.520;10.104;2024-03-25T10:32:12;6.85;;;2.00;;
22270;SDS011;11304;53.520;10.104;2024-03-25T10:34:38;13.60;;;2.33;;
22270;SDS011;11304;53.520;10.104;2024-03-25T10:37:04;12.40;;;2.50;;
22270;SDS011;11304;53.520;10.104;2024-03-25T10:39:31;9.90;;;2.00;;
22270;SDS011;11304;53.520;10.104;2024-03-25T10:41:57;9.23;;;2.00;;
22270;SDS011;11304;53.520;10.104;2024-03-25T10:44:28;12.52;;;2.33;;
22270;SDS011;11304;53.520;10.104;2024-03-25T10:46:58;13.45;;;2.70;;
22270;SDS011;11304;53.520;10.104;2024-03-25T10:52:10;12.32;;;2.50;;
22270;SDS011;11304;53.520;10.104;2024-03-25T10:54:37;14.80;;;2.47;;
22270;SDS011;11304;53.520;10.104;2024-03-25T10:57:03;6.57;;;2.10;;
22270;SDS011;11304;53.520;10.104;2024-03-25T10:59:30;12.05;;;2.30;;
22270;SDS011;11304;53.520;10.104;2024-03-25T11:01:57;16.45;;;2.83;;
22270;SDS011;11304;53.520;10.104;2024-03-25T11:04:23;10.73;;;2.50;;
22270;SDS011;11304;53.520;10.104;2024-03-25T11:06:50;13.25;;;1.92;;
22270;SDS011;11304;53.520;10.104;2024-03-25T11:09:23;7.75;;;2.40;;
22270;SDS011;11304;53.520;10.104;2024-03-25T11:11:55;13.57;;;2.53;;
22270;SDS011;11304;53.520;10.104;2024-03-25T11:14:24;10.65;;;2.55;;
22270;SDS011;11304;53.520;10.104;2024-03-25T11:16:51;11.27;;;2.20;;
22270;SDS011;11304;53.520;10.104;2024-03-25T11:19:17;8.60;;;2.10;;
22270;SDS011;11304;53.520;10.104;2024-03-25T11:21:43;6.85;;;1.90;;
22270;SDS011;11304;53.520;10.104;2024-03-25T11:24:10;10.70;;;1.98;;
22270;SDS011;11304;53.520;10.104;2024-03-25T11:26:40;10.48;;;2.10;;
22270;SDS011;11304;53.520;10.104;2024-03-25T11:29:06;10.43;;;1.90;;
22270;SDS011;11304;53.520;10.104;2024-03-25T11:31:32;14.10;;;2.22;;
22270;SDS011;11304;53.520;10.104;2024-03-25T11:34:03;10.98;;;2.17;;
22270;SDS011;11304;53.520;10.104;2024-03-25T11:36:29;16.88;;;2.42;;
22270;SDS011;11304;53.520;10.104;2024-03-25T11:39:02;11.68;;;2.25;;
22270;SDS011;11304;53.520;10.104;2024-03-25T11:41:41;11.02;;;2.03;;
22270;SDS011;11304;53.520;10.104;2024-03-25T11:44:12;10.23;;;2.45;;
22270;SDS011;11304;53.520;10.104;2024-03-25T11:46:39;14.85;;;2.50;;
22270;SDS011;11304;53.520;10.104;2024-03-25T11:49:05;5.82;;;1.50;;
22270;SDS011;11304;53.520;10.104;2024-03-25T11:51:32;11.70;;;1.60;;
22270;SDS011;11304;53.520;10.104;2024-03-25T11:53:59;13.77;;;2.22;;
22270;SDS011;11304;53.520;10.104;2024-03-25T11:56:25;12.85;;;2.95;;
22270;SDS011;11304;53.520;10.104;2024-03-25T11:58:51;10.15;;;2.40;;
22270;SDS011;11304;53.520;10.104;2024-03-25T12:01:17;10.60;;;2.50;;
22270;SDS011;11304;53.520;10.104;2024-03-25T12:03:43;6.63;;;1.90;;
22270;SDS011;11304;53.520;10.104;2024-03-25T12:06:09;6.38;;;1.70;;
22270;SDS011;11304;53.520;10.104;2024-03-25T12:08:35;9.10;;;2.20;;
22270;SDS011;11304;53.520;10.104;2024-03-25T12:11:10;11.43;;;2.00;;
22270;SDS011;11304;53.520;10.104;2024-03-25T12:13:45;9.85;;;2.40;;
22270;SDS011;11304;53.520;10.104;2024-03-25T12:16:12;15.23;;;2.90;;
22270;SDS011;11304;53.520;10.104;2024-03-25T12:18:40;7.90;;;1.90;;
22270;SDS011;11304;53.520;10.104;2024-03-25T12:21:10;11.65;;;2.28;;
22270;SDS011;11304;53.520;10.104;2024-03-25T12:23:36;13.68;;;1.80;;
22270;SDS011;11304;53.520;10.104;2024-03-25T12:26:02;16.33;;;3.42;;
22270;SDS011;11304;53.520;10.104;2024-03-25T12:28:30;11.30;;;2.95;;
22270;SDS011;11304;53.520;10.104;2024-03-25T12:31:00;11.27;;;2.42;;
22270;SDS011;11304;53.520;10.104;2024-03-25T12:33:26;10.52;;;2.33;;
22270;SDS011;11304;53.520;10.104;2024-03-25T12:35:52;12.57;;;2.25;;
22270;SDS011;11304;53.520;10.104;2024-03-25T12:43:14;8.55;;;1.65;;
22270;SDS011;11304;53.520;10.104;2024-03-25T12:45:41;7.30;;;1.85;;
22270;SDS011;11304;53.520;10.104;2024-03-25T12:48:07;9.98;;;1.88;;
22270;SDS011;11304;53.520;10.104;2024-03-25T12:50:33;8.98;;;1.52;;
22270;SDS011;11304;53.520;10.104;2024-03-25T12:52:59;6.03;;;1.38;;
22270;SDS011;11304;53.520;10.104;2024-03-25T12:55:25;8.95;;;2.13;;
22270;SDS011;11304;53.520;10.104;2024-03-25T12:57:52;5.07;;;1.23;;
22270;SDS011;11304;53.520;10.104;2024-03-25T13:00:18;4.95;;;1.00;;
22270;SDS011;11304;53.520;10.104;2024-03-25T13:02:44;4.45;;;1.20;;
22270;SDS011;11304;53.520;10.104;2024-03-25T13:05:10;6.60;;;1.88;;
22270;SDS011;11304;53.520;10.104;2024-03-25T13:07:36;8.40;;;2.13;;
22270;SDS011;11304;53.520;10.104;2024-03-25T13:10:02;4.85;;;1.33;;
22270;SDS011;11304;53.520;10.104;2024-03-25T13:12:30;4.50;;;1.63;;
22270;SDS011;11304;53.520;10.104;2024-03-25T13:14:56;9.18;;;1.80;;
22270;SDS011;11304;53.520;10.104;2024-03-25T13:17:24;5.60;;;1.43;;
22270;SDS011;11304;53.520;10.104;2024-03-25T13:19:50;9.20;;;1.60;;
22270;SDS011;11304;53.520;10.104;2024-03-25T13:22:16;5.97;;;1.60;;
22270;SDS011;11304;53.520;10.104;2024-03-25T13:24:42;9.18;;;1.70;;
22270;SDS011;11304;53.520;10.104;2024-03-25T13:27:08;6.43;;;1.85;;
22270;SDS011;11304;53.520;10.104;2024-03-25T13:29:34;8.38;;;1.70;;
22270;SDS011;11304;53.520;10.104;2024-03-25T13:32:02;7.13;;;1.50;;
22270;SDS011;11304;53.520;10.104;2024-03-25T13:34:28;4.95;;;1.30;;
22270;SDS011;11304;53.520;10.104;2024-03-25T13:36:54;7.25;;;1.60;;
22270;SDS011;11304;53.520;10.104;2024-03-25T13:39:20;5.13;;;1.63;;
22270;SDS011;11304;53.520;10.104;2024-03-25T13:41:46;8.80;;;1.80;;
22270;SDS011;11304;53.520;10.104;2024-03-25T13:44:13;8.95;;;1.60;;
22270;SDS011;11304;53.520;10.104;2024-03-25T13:46:39;7.55;;;1.80;;
22270;SDS011;11304;53.520;10.104;2024-03-25T13:49:05;8.15;;;1.50;;
22270;SDS011;11304;53.520;10.104;2024-03-25T13:51:31;9.48;;;1.60;;
22270;SDS011;11304;53.520;10.104;2024-03-25T13:53:57;8.13;;;1.80;;
22270;SDS011;11304;53.520;10.104;2024-03-25T13:56:23;6.20;;;1.92;;
22270;SDS011;11304;53.520;10.104;2024-03-25T13:58:49;9.57;;;1.80;;
22270;SDS011;11304;53.520;10.104;2024-03-25T14:01:15;4.78;;;1.77;;
22270;SDS011;11304;53.520;10.104;2024-03-25T14:03:41;7.70;;;2.00;;
22270;SDS011;11304;53.520;10.104;2024-03-25T14:06:07;13.95;;;2.50;;
22270;SDS011;11304;53.520;10.104;2024-03-25T14:08:33;8.60;;;1.95;;
22270;SDS011;11304;53.520;10.104;2024-03-25T14:11:01;10.55;;;1.60;;
22270;SDS011;11304;53.520;10.104;2024-03-25T14:13:27;7.30;;;2.00;;
22270;SDS011;11304;53.520;10.104;2024-03-25T14:15:54;9.27;;;1.88;;
22270;SDS011;11304;53.520;10.104;2024-03-25T14:18:20;12.80;;;1.80;;
22270;SDS011;11304;53.520;10.104;2024-03-25T14:20:46;7.07;;;1.90;;
22270;SDS011;11304;53.520;10.104;2024-03-25T14:23:12;9.00;;;1.40;;
22270;SDS011;11304;53.520;10.104;2024-03-25T14:25:38;9.40;;;2.08;;
22270;SDS011;11304;53.520;10.104;2024-03-25T14:28:04;8.18;;;1.80;;
22270;SDS011;11304;53.520;10.104;2024-03-25T14:30:30;7.05;;;1.63;;
22270;SDS011;11304;53.520;10.104;2024-03-25T14:32:56;5.32;;;1.67;;
22270;SDS011;11304;53.520;10.104;2024-03-25T14:35:22;6.07;;;1.58;;
22270;SDS011;11304;53.520;10.104;2024-03-25T14:37:48;4.78;;;1.38;;